sensor_id;sensor_type;location;lat;lon;timestamp;P1;durP1;ratioP1;P2;durP2;ratioP2
57842;SDS011;43673;51.058;3.734;2022-10-30T12:58:35;5.55;;;4.60;;
57842;SDS011;43673;51.058;3.734;2022-10-30T13:04:17;14.75;;;7.78;;
57842;SDS011;43673;51.058;3.734;2022-10-30T13:06:50;11.70;;;7.63;;
57842;SDS011;43673;51.058;3.734;2022-10-30T13:14:39;19.13;;;9.90;;
57842;SDS011;43673;51.058;3.734;2022-10-30T13:17:17;14.90;;;10.10;;
57842;SDS011;43673;51.058;3.734;2022-10-30T13:19:44;19.20;;;9.65;;
57842;SDS011;43673;51.058;3.734;2022-10-30T13:22:30;16.13;;;9.35;;
57842;SDS011;43673;51.058;3.734;2022-10-30T13:25:27;23.40;;;9.75;;
57842;SDS011;43673;51.058;3.734;2022-10-30T13:28:03;19.92;;;11.77;;
57842;SDS011;43673;51.058;3.734;2022-10-30T13:30:46;17.42;;;10.82;;
57842;SDS011;43673;51.058;3.734;2022-10-30T13:36:20;15.80;;;7.07;;
57842;SDS011;43673;51.058;3.734;2022-10-30T13:39:02;8.82;;;5.80;;
57842;SDS011;43673;51.058;3.734;2022-10-30T13:47:14;9.27;;;5.88;;
57842;SDS011;43673;51.058;3.734;2022-10-30T13:52:19;11.35;;;5.75;;
57842;SDS011;43673;51.058;3.734;2022-10-30T13:54:50;11.55;;;5.85;;
57842;SDS011;43673;51.058;3.734;2022-10-30T13:57:19;9.88;;;5.60;;
57842;SDS011;43673;51.058;3.734;2022-10-30T14:00:02;13.23;;;5.93;;
57842;SDS011;43673;51.058;3.734;2022-10-30T14:08:20;16.33;;;6.55;;
57842;SDS011;43673;51.058;3.734;2022-10-30T14:10:53;10.40;;;5.47;;
57842;SDS011;43673;51.058;3.734;2022-10-30T14:13:28;10.90;;;5.30;;
57842;SDS011;43673;51.058;3.734;2022-10-30T14:16:01;10.68;;;5.63;;
57842;SDS011;43673;51.058;3.734;2022-10-30T14:29:29;17.92;;;7.18;;
57842;SDS011;43673;51.058;3.734;2022-10-30T14:32:02;12.20;;;6.05;;
57842;SDS011;43673;51.058;3.734;2022-10-30T14:39:55;10.77;;;5.65;;
57842;SDS011;43673;51.058;3.734;2022-10-30T14:42:23;13.38;;;5.93;;
57842;SDS011;43673;51.058;3.734;2022-10-30T14:47:58;13.43;;;5.30;;
57842;SDS011;43673;51.058;3.734;2022-10-30T14:55:25;11.05;;;4.45;;
57842;SDS011;43673;51.058;3.734;2022-10-30T15:14:30;10.75;;;3.10;;
57842;SDS011;43673;51.058;3.734;2022-10-30T15:16:59;7.82;;;3.53;;
57842;SDS011;43673;51.058;3.734;2022-10-30T15:19:27;6.20;;;2.72;;
57842;SDS011;43673;51.058;3.734;2022-10-30T15:21:54;6.90;;;3.90;;
57842;SDS011;43673;51.058;3.734;2022-10-30T15:24:21;8.32;;;3.10;;
57842;SDS011;43673;51.058;3.734;2022-10-30T15:26:54;8.18;;;4.20;;
57842;SDS011;43673;51.058;3.734;2022-10-30T15:29:29;9.13;;;4.05;;
57842;SDS011;43673;51.058;3.734;2022-10-30T15:34:23;8.35;;;3.70;;
57842;SDS011;43673;51.058;3.734;2022-10-30T15:36:50;11.95;;;4.10;;
57842;SDS011;43673;51.058;3.734;2022-10-30T15:39:16;7.22;;;3.50;;
57842;SDS011;43673;51.058;3.734;2022-10-30T15:44:24;6.57;;;2.75;;
57842;SDS011;43673;51.058;3.734;2022-10-30T15:46:51;12.10;;;3.67;;
57842;SDS011;43673;51.058;3.734;2022-10-30T15:49:27;9.27;;;2.97;;
57842;SDS011;43673;51.058;3.734;2022-10-30T15:52:02;8.57;;;3.22;;
57842;SDS011;43673;51.058;3.734;2022-10-30T15:54:37;10.35;;;3.85;;
57842;SDS011;43673;51.058;3.734;2022-10-30T15:57:05;13.10;;;4.03;;
57842;SDS011;43673;51.058;3.734;2022-10-30T15:59:42;15.50;;;3.75;;
57842;SDS011;43673;51.058;3.734;2022-10-30T16:02:18;8.38;;;3.75;;
57842;SDS011;43673;51.058;3.734;2022-10-30T16:04:46;7.60;;;3.22;;
57842;SDS011;43673;51.058;3.734;2022-10-30T16:07:16;10.05;;;4.00;;
57842;SDS011;43673;51.058;3.734;2022-10-30T16:12:26;8.60;;;5.60;;
57842;SDS011;43673;51.058;3.734;2022-10-30T16:14:57;10.30;;;3.83;;
57842;SDS011;43673;51.058;3.734;2022-10-30T16:17:29;7.05;;;3.22;;
57842;SDS011;43673;51.058;3.734;2022-10-30T16:19:55;7.85;;;4.18;;
57842;SDS011;43673;51.058;3.734;2022-10-30T16:22:26;6.70;;;3.80;;
57842;SDS011;43673;51.058;3.734;2022-10-30T16:24:59;12.18;;;4.47;;
57842;SDS011;43673;51.058;3.734;2022-10-30T16:27:25;11.30;;;4.32;;
57842;SDS011;43673;51.058;3.734;2022-10-30T16:29:55;7.40;;;3.95;;
57842;SDS011;43673;51.058;3.734;2022-10-30T16:32:25;9.43;;;4.40;;
57842;SDS011;43673;51.058;3.734;2022-10-30T16:34:56;9.68;;;4.30;;
57842;SDS011;43673;51.058;3.734;2022-10-30T16:37:26;11.02;;;4.18;;
57842;SDS011;43673;51.058;3.734;2022-10-30T16:40:14;11.20;;;4.95;;
57842;SDS011;43673;51.058;3.734;2022-10-30T16:42:58;15.27;;;5.32;;
57842;SDS011;43673;51.058;3.734;2022-10-30T16:48:27;13.98;;;6.93;;
57842;SDS011;43673;51.058;3.734;2022-10-30T16:50:52;13.93;;;5.80;;
57842;SDS011;43673;51.058;3.734;2022-10-30T16:53:24;11.57;;;5.40;;
57842;SDS011;43673;51.058;3.734;2022-10-30T16:55:50;12.77;;;5.63;;
57842;SDS011;43673;51.058;3.734;2022-10-30T16:58:18;8.68;;;5.13;;
57842;SDS011;43673;51.058;3.734;2022-10-30T17:00:54;12.77;;;4.90;;
57842;SDS011;43673;51.058;3.734;2022-10-30T17:03:26;14.70;;;5.30;;
57842;SDS011;43673;51.058;3.734;2022-10-30T17:06:00;11.00;;;5.65;;
57842;SDS011;43673;51.058;3.734;2022-10-30T17:08:40;31.15;;;9.75;;
57842;SDS011;43673;51.058;3.734;2022-10-30T17:12:03;26.73;;;10.57;;
57842;SDS011;43673;51.058;3.734;2022-10-30T17:14:01;23.50;;;9.50;;
57842;SDS011;43673;51.058;3.734;2022-10-30T17:16:39;16.65;;;7.75;;
57842;SDS011;43673;51.058;3.734;2022-10-30T17:21:56;12.10;;;6.57;;
57842;SDS011;43673;51.058;3.734;2022-10-30T17:24:30;12.40;;;6.75;;
57842;SDS011;43673;51.058;3.734;2022-10-30T17:26:59;15.02;;;6.90;;
57842;SDS011;43673;51.058;3.734;2022-10-30T17:32:02;13.27;;;6.75;;
57842;SDS011;43673;51.058;3.734;2022-10-30T17:34:29;15.50;;;7.10;;
57842;SDS011;43673;51.058;3.734;2022-10-30T17:36:54;14.05;;;6.00;;
57842;SDS011;43673;51.058;3.734;2022-10-30T17:39:23;13.82;;;5.45;;
57842;SDS011;43673;51.058;3.734;2022-10-30T17:41:49;11.50;;;5.95;;
57842;SDS011;43673;51.058;3.734;2022-10-30T17:44:18;15.38;;;5.80;;
57842;SDS011;43673;51.058;3.734;2022-10-30T17:46:46;13.02;;;7.25;;
57842;SDS011;43673;51.058;3.734;2022-10-30T17:49:18;16.15;;;8.00;;
57842;SDS011;43673;51.058;3.734;2022-10-30T17:52:03;21.00;;;12.88;;
57842;SDS011;43673;51.058;3.734;2022-10-30T17:54:29;30.48;;;13.18;;
57842;SDS011;43673;51.058;3.734;2022-10-30T17:56:56;20.42;;;11.60;;
57842;SDS011;43673;51.058;3.734;2022-10-30T17:59:22;34.35;;;16.45;;
57842;SDS011;43673;51.058;3.734;2022-10-30T18:01:48;34.50;;;18.15;;
57842;SDS011;43673;51.058;3.734;2022-10-30T18:04:15;37.42;;;19.95;;
57842;SDS011;43673;51.058;3.734;2022-10-30T18:06:42;12.90;;;9.18;;
57842;SDS011;43673;51.058;3.734;2022-10-30T18:09:08;10.10;;;7.30;;
57842;SDS011;43673;51.058;3.734;2022-10-30T18:11:34;14.48;;;9.20;;
57842;SDS011;43673;51.058;3.734;2022-10-30T18:14:01;16.88;;;10.13;;
57842;SDS011;43673;51.058;3.734;2022-10-30T18:16:27;22.95;;;14.27;;
57842;SDS011;43673;51.058;3.734;2022-10-30T18:18:52;16.48;;;9.23;;
57842;SDS011;43673;51.058;3.734;2022-10-30T18:21:20;16.05;;;9.45;;
57842;SDS011;43673;51.058;3.734;2022-10-30T18:23:47;16.95;;;8.05;;
57842;SDS011;43673;51.058;3.734;2022-10-30T18:26:17;13.13;;;7.97;;
57842;SDS011;43673;51.058;3.734;2022-10-30T18:28:45;16.90;;;8.05;;
57842;SDS011;43673;51.058;3.734;2022-10-30T18:31:11;14.65;;;6.53;;
57842;SDS011;43673;51.058;3.734;2022-10-30T18:33:40;13.82;;;6.70;;
57842;SDS011;43673;51.058;3.734;2022-10-30T18:38:39;13.63;;;8.05;;
57842;SDS011;43673;51.058;3.734;2022-10-30T18:41:05;18.23;;;10.18;;
57842;SDS011;43673;51.058;3.734;2022-10-30T18:43:33;14.63;;;9.18;;
57842;SDS011;43673;51.058;3.734;2022-10-30T18:45:59;9.68;;;6.78;;
57842;SDS011;43673;51.058;3.734;2022-10-30T18:48:25;13.82;;;8.70;;
57842;SDS011;43673;51.058;3.734;2022-10-30T18:50:50;12.27;;;8.05;;
57842;SDS011;43673;51.058;3.734;2022-10-30T18:53:16;17.35;;;8.32;;
57842;SDS011;43673;51.058;3.734;2022-10-30T18:55:43;15.18;;;8.23;;
57842;SDS011;43673;51.058;3.734;2022-10-30T18:58:08;12.07;;;5.43;;
57842;SDS011;43673;51.058;3.734;2022-10-30T19:00:35;19.85;;;7.20;;
57842;SDS011;43673;51.058;3.734;2022-10-30T19:03:03;17.27;;;9.05;;
57842;SDS011;43673;51.058;3.734;2022-10-30T19:08:02;19.70;;;11.77;;
57842;SDS011;43673;51.058;3.734;2022-10-30T19:10:29;39.38;;;22.00;;
57842;SDS011;43673;51.058;3.734;2022-10-30T19:13:21;26.80;;;15.85;;
57842;SDS011;43673;51.058;3.734;2022-10-30T19:15:50;19.13;;;10.57;;
57842;SDS011;43673;51.058;3.734;2022-10-30T19:18:17;18.00;;;9.45;;
57842;SDS011;43673;51.058;3.734;2022-10-30T19:20:45;13.13;;;8.52;;
57842;SDS011;43673;51.058;3.734;2022-10-30T19:23:20;13.70;;;8.07;;
57842;SDS011;43673;51.058;3.734;2022-10-30T19:25:47;11.43;;;6.75;;
57842;SDS011;43673;51.058;3.734;2022-10-30T19:28:13;13.77;;;8.13;;
57842;SDS011;43673;51.058;3.734;2022-10-30T19:30:41;13.45;;;6.97;;
57842;SDS011;43673;51.058;3.734;2022-10-30T19:33:17;10.85;;;7.35;;
57842;SDS011;43673;51.058;3.734;2022-10-30T19:35:55;9.25;;;6.13;;
57842;SDS011;43673;51.058;3.734;2022-10-30T19:38:25;13.18;;;7.13;;
57842;SDS011;43673;51.058;3.734;2022-10-30T19:40:51;9.82;;;7.07;;
57842;SDS011;43673;51.058;3.734;2022-10-30T19:43:17;12.48;;;7.85;;
57842;SDS011;43673;51.058;3.734;2022-10-30T19:45:43;16.30;;;8.35;;
57842;SDS011;43673;51.058;3.734;2022-10-30T19:48:11;16.38;;;9.38;;
57842;SDS011;43673;51.058;3.734;2022-10-30T19:50:40;16.80;;;8.68;;
57842;SDS011;43673;51.058;3.734;2022-10-30T19:53:07;14.93;;;7.47;;
57842;SDS011;43673;51.058;3.734;2022-10-30T19:55:35;10.35;;;7.03;;
57842;SDS011;43673;51.058;3.734;2022-10-30T19:58:02;12.18;;;7.35;;
57842;SDS011;43673;51.058;3.734;2022-10-30T20:00:33;10.07;;;6.85;;
57842;SDS011;43673;51.058;3.734;2022-10-30T20:03:00;12.30;;;7.38;;
57842;SDS011;43673;51.058;3.734;2022-10-30T20:05:28;10.77;;;6.43;;
57842;SDS011;43673;51.058;3.734;2022-10-30T20:08:02;15.43;;;7.75;;
57842;SDS011;43673;51.058;3.734;2022-10-30T20:10:29;13.70;;;7.72;;
57842;SDS011;43673;51.058;3.734;2022-10-30T20:12:56;15.15;;;9.10;;
57842;SDS011;43673;51.058;3.734;2022-10-30T20:15:22;13.27;;;7.40;;
57842;SDS011;43673;51.058;3.734;2022-10-30T20:17:49;10.40;;;6.05;;
57842;SDS011;43673;51.058;3.734;2022-10-30T20:20:17;8.93;;;6.18;;
57842;SDS011;43673;51.058;3.734;2022-10-30T20:22:45;11.20;;;6.18;;
57842;SDS011;43673;51.058;3.734;2022-10-30T20:25:11;12.18;;;6.18;;
57842;SDS011;43673;51.058;3.734;2022-10-30T20:27:37;12.90;;;6.80;;
57842;SDS011;43673;51.058;3.734;2022-10-30T20:30:05;14.32;;;7.07;;
57842;SDS011;43673;51.058;3.734;2022-10-30T20:32:32;15.40;;;7.63;;
57842;SDS011;43673;51.058;3.734;2022-10-30T20:34:57;13.88;;;7.53;;
57842;SDS011;43673;51.058;3.734;2022-10-30T20:37:23;14.05;;;6.70;;
57842;SDS011;43673;51.058;3.734;2022-10-30T20:39:49;15.57;;;7.43;;
57842;SDS011;43673;51.058;3.734;2022-10-30T20:42:16;11.88;;;6.90;;
57842;SDS011;43673;51.058;3.734;2022-10-30T20:44:44;15.93;;;8.45;;
57842;SDS011;43673;51.058;3.734;2022-10-30T20:47:10;16.00;;;8.50;;
57842;SDS011;43673;51.058;3.734;2022-10-30T20:49:36;12.68;;;7.50;;
57842;SDS011;43673;51.058;3.734;2022-10-30T20:52:02;14.63;;;9.60;;
57842;SDS011;43673;51.058;3.734;2022-10-30T20:54:27;13.30;;;8.07;;
57842;SDS011;43673;51.058;3.734;2022-10-30T20:56:53;18.02;;;8.60;;
57842;SDS011;43673;51.058;3.734;2022-10-30T20:59:19;17.77;;;8.98;;
57842;SDS011;43673;51.058;3.734;2022-10-30T21:01:45;11.20;;;7.30;;
57842;SDS011;43673;51.058;3.734;2022-10-30T21:04:11;16.33;;;9.20;;
57842;SDS011;43673;51.058;3.734;2022-10-30T21:06:45;13.23;;;8.95;;
57842;SDS011;43673;51.058;3.734;2022-10-30T21:09:11;15.18;;;8.10;;
57842;SDS011;43673;51.058;3.734;2022-10-30T21:11:50;17.55;;;10.23;;
57842;SDS011;43673;51.058;3.734;2022-10-30T21:14:16;16.23;;;10.40;;
57842;SDS011;43673;51.058;3.734;2022-10-30T21:16:41;15.23;;;8.82;;
57842;SDS011;43673;51.058;3.734;2022-10-30T21:19:07;18.77;;;8.45;;
57842;SDS011;43673;51.058;3.734;2022-10-30T21:21:33;13.13;;;8.00;;
57842;SDS011;43673;51.058;3.734;2022-10-30T21:23:58;13.50;;;8.30;;
57842;SDS011;43673;51.058;3.734;2022-10-30T21:26:24;15.88;;;7.80;;
57842;SDS011;43673;51.058;3.734;2022-10-30T21:28:49;13.52;;;8.43;;
57842;SDS011;43673;51.058;3.734;2022-10-30T21:31:15;14.48;;;8.05;;
57842;SDS011;43673;51.058;3.734;2022-10-30T21:33:41;20.25;;;9.98;;
57842;SDS011;43673;51.058;3.734;2022-10-30T21:36:13;16.75;;;7.93;;
57842;SDS011;43673;51.058;3.734;2022-10-30T21:38:41;11.05;;;7.05;;
57842;SDS011;43673;51.058;3.734;2022-10-30T21:41:12;9.93;;;6.05;;
57842;SDS011;43673;51.058;3.734;2022-10-30T21:43:39;10.10;;;5.90;;
57842;SDS011;43673;51.058;3.734;2022-10-30T21:46:05;10.13;;;6.28;;
57842;SDS011;43673;51.058;3.734;2022-10-30T21:48:32;11.00;;;6.35;;
57842;SDS011;43673;51.058;3.734;2022-10-30T21:51:05;9.90;;;5.95;;
57842;SDS011;43673;51.058;3.734;2022-10-30T21:53:32;12.05;;;6.60;;
57842;SDS011;43673;51.058;3.734;2022-10-30T21:56:02;14.55;;;7.80;;
57842;SDS011;43673;51.058;3.734;2022-10-30T21:58:31;10.32;;;6.40;;
57842;SDS011;43673;51.058;3.734;2022-10-30T22:00:57;10.32;;;6.22;;
57842;SDS011;43673;51.058;3.734;2022-10-30T22:05:58;11.60;;;6.25;;
57842;SDS011;43673;51.058;3.734;2022-10-30T22:08:29;11.57;;;5.40;;
57842;SDS011;43673;51.058;3.734;2022-10-30T22:10:55;11.85;;;5.70;;
57842;SDS011;43673;51.058;3.734;2022-10-30T22:13:26;8.30;;;5.63;;
57842;SDS011;43673;51.058;3.734;2022-10-30T22:15:55;6.65;;;5.13;;
57842;SDS011;43673;51.058;3.734;2022-10-30T22:18:21;9.85;;;5.10;;
57842;SDS011;43673;51.058;3.734;2022-10-30T22:20:46;7.60;;;5.03;;
57842;SDS011;43673;51.058;3.734;2022-10-30T22:23:12;8.40;;;5.18;;
57842;SDS011;43673;51.058;3.734;2022-10-30T22:25:38;7.00;;;4.72;;
57842;SDS011;43673;51.058;3.734;2022-10-30T22:28:03;8.32;;;4.18;;
57842;SDS011;43673;51.058;3.734;2022-10-30T22:30:29;8.20;;;4.68;;
57842;SDS011;43673;51.058;3.734;2022-10-30T22:32:56;9.23;;;4.53;;
57842;SDS011;43673;51.058;3.734;2022-10-30T22:35:21;8.10;;;4.63;;
57842;SDS011;43673;51.058;3.734;2022-10-30T22:37:47;9.38;;;6.55;;
57842;SDS011;43673;51.058;3.734;2022-10-30T22:40:13;9.52;;;4.78;;
57842;SDS011;43673;51.058;3.734;2022-10-30T22:42:39;7.35;;;4.57;;
57842;SDS011;43673;51.058;3.734;2022-10-30T22:45:05;9.02;;;4.82;;
57842;SDS011;43673;51.058;3.734;2022-10-30T22:47:31;6.30;;;4.45;;
57842;SDS011;43673;51.058;3.734;2022-10-30T22:49:57;11.48;;;4.65;;
57842;SDS011;43673;51.058;3.734;2022-10-30T22:52:22;10.05;;;4.65;;
57842;SDS011;43673;51.058;3.734;2022-10-30T22:54:48;9.73;;;4.35;;
57842;SDS011;43673;51.058;3.734;2022-10-30T22:57:14;6.80;;;4.32;;
57842;SDS011;43673;51.058;3.734;2022-10-30T22:59:40;8.57;;;4.20;;
57842;SDS011;43673;51.058;3.734;2022-10-30T23:02:06;7.07;;;4.55;;
57842;SDS011;43673;51.058;3.734;2022-10-30T23:04:31;6.90;;;4.80;;
57842;SDS011;43673;51.058;3.734;2022-10-30T23:06:57;10.45;;;4.35;;
57842;SDS011;43673;51.058;3.734;2022-10-30T23:09:22;5.22;;;4.30;;
57842;SDS011;43673;51.058;3.734;2022-10-30T23:11:48;6.57;;;4.57;;
57842;SDS011;43673;51.058;3.734;2022-10-30T23:14:14;9.68;;;4.55;;
57842;SDS011;43673;51.058;3.734;2022-10-30T23:16:40;4.95;;;4.45;;
57842;SDS011;43673;51.058;3.734;2022-10-30T23:19:06;7.85;;;4.13;;
57842;SDS011;43673;51.058;3.734;2022-10-30T23:21:34;7.45;;;5.03;;
57842;SDS011;43673;51.058;3.734;2022-10-30T23:24:02;9.77;;;4.80;;
57842;SDS011;43673;51.058;3.734;2022-10-30T23:26:31;6.63;;;4.72;;
57842;SDS011;43673;51.058;3.734;2022-10-30T23:31:34;8.68;;;5.90;;
57842;SDS011;43673;51.058;3.734;2022-10-30T23:34:03;6.43;;;5.03;;
57842;SDS011;43673;51.058;3.734;2022-10-30T23:36:30;6.93;;;5.23;;
57842;SDS011;43673;51.058;3.734;2022-10-30T23:38:57;11.23;;;5.85;;
57842;SDS011;43673;51.058;3.734;2022-10-30T23:41:28;7.88;;;4.75;;
57842;SDS011;43673;51.058;3.734;2022-10-30T23:43:56;9.25;;;4.20;;
57842;SDS011;43673;51.058;3.734;2022-10-30T23:46:25;11.65;;;4.88;;
57842;SDS011;43673;51.058;3.734;2022-10-30T23:48:51;9.30;;;5.68;;
57842;SDS011;43673;51.058;3.734;2022-10-30T23:51:16;9.13;;;4.60;;
57842;SDS011;43673;51.058;3.734;2022-10-30T23:53:44;10.30;;;5.40;;
57842;SDS011;43673;51.058;3.734;2022-10-30T23:56:09;6.72;;;4.43;;
57842;SDS011;43673;51.058;3.734;2022-10-30T23:58:35;5.82;;;4.60;;
